sensor_id;sensor_type;location;lat;lon;timestamp;pressure;altitude;pressure_sealevel;temperature;humidity
68758;BME280;55747;51.998;4.466;2023-03-15T00:01:41;56560.53;;;-144.48;100.00
68758;BME280;55747;51.998;4.466;2023-03-15T00:04:11;56577.09;;;-144.48;100.00
68758;BME280;55747;51.998;4.466;2023-03-15T00:06:39;56556.41;;;-144.48;100.00
68758;BME280;55747;51.998;4.466;2023-03-15T00:09:05;56583.28;;;-144.48;100.00
68758;BME280;55747;51.998;4.466;2023-03-15T00:11:30;56554.34;;;-144.48;100.00
68758;BME280;55747;51.998;4.466;2023-03-15T00:13:58;56572.94;;;-144.48;100.00
68758;BME280;55747;51.998;4.466;2023-03-15T00:16:26;56570.88;;;-144.48;100.00
68758;BME280;55747;51.998;4.466;2023-03-15T00:18:54;56593.63;;;-144.48;100.00
68758;BME280;55747;51.998;4.466;2023-03-15T00:21:21;56577.09;;;-144.48;100.00
68758;BME280;55747;51.998;4.466;2023-03-15T00:24:03;56570.88;;;-144.48;100.00
68758;BME280;55747;51.998;4.466;2023-03-15T00:26:38;56589.50;;;-144.48;100.00
68758;BME280;55747;51.998;4.466;2023-03-15T00:29:04;56610.16;;;-144.48;100.00
68758;BME280;55747;51.998;4.466;2023-03-15T00:31:39;56531.59;;;-144.48;100.00
68758;BME280;55747;51.998;4.466;2023-03-15T00:34:17;56554.34;;;-144.48;100.00
68758;BME280;55747;51.998;4.466;2023-03-15T00:36:47;56570.88;;;-144.48;100.00
68758;BME280;55747;51.998;4.466;2023-03-15T00:39:21;56566.75;;;-144.48;100.00
68758;BME280;55747;51.998;4.466;2023-03-15T00:42:01;56535.75;;;-144.48;100.00
68758;BME280;55747;51.998;4.466;2023-03-15T00:44:28;56558.47;;;-144.48;100.00
68758;BME280;55747;51.998;4.466;2023-03-15T00:47:01;56568.81;;;-144.48;100.00
68758;BME280;55747;51.998;4.466;2023-03-15T00:49:36;56546.06;;;-144.48;100.00
68758;BME280;55747;51.998;4.466;2023-03-15T00:52:10;56556.41;;;-144.48;100.00
68758;BME280;55747;51.998;4.466;2023-03-15T00:54:39;56554.34;;;-144.48;100.00
68758;BME280;55747;51.998;4.466;2023-03-15T00:57:07;56583.28;;;-144.48;100.00
68758;BME280;55747;51.998;4.466;2023-03-15T00:59:33;56560.53;;;-144.48;100.00
68758;BME280;55747;51.998;4.466;2023-03-15T01:02:04;56554.34;;;-144.48;100.00
68758;BME280;55747;51.998;4.466;2023-03-15T01:04:33;56552.28;;;-144.48;100.00
68758;BME280;55747;51.998;4.466;2023-03-15T01:06:59;56572.94;;;-144.48;100.00
68758;BME280;55747;51.998;4.466;2023-03-15T01:09:27;56548.13;;;-144.48;100.00
68758;BME280;55747;51.998;4.466;2023-03-15T01:11:58;56599.81;;;-144.48;100.00
68758;BME280;55747;51.998;4.466;2023-03-15T01:14:24;56589.50;;;-144.48;100.00
68758;BME280;55747;51.998;4.466;2023-03-15T01:16:49;56548.13;;;-144.48;100.00
68758;BME280;55747;51.998;4.466;2023-03-15T01:19:16;56537.81;;;-144.48;100.00
68758;BME280;55747;51.998;4.466;2023-03-15T01:21:42;56577.09;;;-144.48;100.00
68758;BME280;55747;51.998;4.466;2023-03-15T01:24:13;56570.88;;;-144.48;100.00
68758;BME280;55747;51.998;4.466;2023-03-15T01:26:39;56554.34;;;-144.48;100.00
68758;BME280;55747;51.998;4.466;2023-03-15T01:29:05;56539.88;;;-144.48;100.00
68758;BME280;55747;51.998;4.466;2023-03-15T01:31:31;56554.34;;;-144.48;100.00
68758;BME280;55747;51.998;4.466;2023-03-15T01:34:00;56606.03;;;-144.48;100.00
68758;BME280;55747;51.998;4.466;2023-03-15T01:36:25;56614.31;;;-144.48;100.00
68758;BME280;55747;51.998;4.466;2023-03-15T01:38:50;56593.63;;;-144.48;100.00
68758;BME280;55747;51.998;4.466;2023-03-15T01:41:18;56618.44;;;-144.48;100.00
68758;BME280;55747;51.998;4.466;2023-03-15T01:43:44;56583.28;;;-144.48;100.00
68758;BME280;55747;51.998;4.466;2023-03-15T01:49:11;56552.28;;;-144.48;100.00
68758;BME280;55747;51.998;4.466;2023-03-15T01:54:40;56564.69;;;-144.48;100.00
68758;BME280;55747;51.998;4.466;2023-03-15T01:57:10;56568.81;;;-144.48;100.00
68758;BME280;55747;51.998;4.466;2023-03-15T02:00:02;56541.94;;;-144.48;100.00
68758;BME280;55747;51.998;4.466;2023-03-15T02:02:32;56595.69;;;-144.48;100.00
68758;BME280;55747;51.998;4.466;2023-03-15T02:05:06;56597.75;;;-144.48;100.00
68758;BME280;55747;51.998;4.466;2023-03-15T02:07:35;56591.56;;;-144.48;100.00
68758;BME280;55747;51.998;4.466;2023-03-15T02:10:09;56562.63;;;-144.48;100.00
68758;BME280;55747;51.998;4.466;2023-03-15T02:12:40;56564.69;;;-144.48;100.00
68758;BME280;55747;51.998;4.466;2023-03-15T02:15:07;56583.28;;;-144.48;100.00
68758;BME280;55747;51.998;4.466;2023-03-15T02:17:39;56568.81;;;-144.48;100.00
68758;BME280;55747;51.998;4.466;2023-03-15T02:23:06;56550.22;;;-144.48;100.00
68758;BME280;55747;51.998;4.466;2023-03-15T02:28:17;56591.56;;;-144.48;100.00
68758;BME280;55747;51.998;4.466;2023-03-15T02:30:46;56572.94;;;-144.48;100.00
68758;BME280;55747;51.998;4.466;2023-03-15T02:33:25;56552.28;;;-144.48;100.00
68758;BME280;55747;51.998;4.466;2023-03-15T02:35:52;56591.56;;;-144.48;100.00
68758;BME280;55747;51.998;4.466;2023-03-15T02:38:17;56595.69;;;-144.48;100.00
68758;BME280;55747;51.998;4.466;2023-03-15T02:40:45;56570.88;;;-144.48;100.00
68758;BME280;55747;51.998;4.466;2023-03-15T02:43:24;56597.75;;;-144.48;100.00
68758;BME280;55747;51.998;4.466;2023-03-15T02:45:57;56564.69;;;-144.48;100.00
68758;BME280;55747;51.998;4.466;2023-03-15T02:48:27;56550.22;;;-144.48;100.00
68758;BME280;55747;51.998;4.466;2023-03-15T02:51:04;56560.53;;;-144.48;100.00
68758;BME280;55747;51.998;4.466;2023-03-15T02:53:39;56612.22;;;-144.48;100.00
68758;BME280;55747;51.998;4.466;2023-03-15T02:56:09;56552.28;;;-144.48;100.00
68758;BME280;55747;51.998;4.466;2023-03-15T02:58:39;56587.41;;;-144.48;100.00
68758;BME280;55747;51.998;4.466;2023-03-15T03:01:05;56577.09;;;-144.48;100.00
68758;BME280;55747;51.998;4.466;2023-03-15T03:03:30;56566.75;;;-144.48;100.00
68758;BME280;55747;51.998;4.466;2023-03-15T03:06:03;56572.94;;;-144.48;100.00
68758;BME280;55747;51.998;4.466;2023-03-15T03:08:28;56595.69;;;-144.48;100.00
68758;BME280;55747;51.998;4.466;2023-03-15T03:10:54;56589.50;;;-144.48;100.00
68758;BME280;55747;51.998;4.466;2023-03-15T03:13:19;56566.75;;;-144.48;100.00
68758;BME280;55747;51.998;4.466;2023-03-15T03:15:49;56562.63;;;-144.48;100.00
68758;BME280;55747;51.998;4.466;2023-03-15T03:18:16;56564.69;;;-144.48;100.00
68758;BME280;55747;51.998;4.466;2023-03-15T03:20:45;56606.03;;;-144.48;100.00
68758;BME280;55747;51.998;4.466;2023-03-15T03:23:13;56577.09;;;-144.48;100.00
68758;BME280;55747;51.998;4.466;2023-03-15T03:25:39;56589.50;;;-144.48;100.00
68758;BME280;55747;51.998;4.466;2023-03-15T03:28:35;56564.69;;;-144.48;100.00
68758;BME280;55747;51.998;4.466;2023-03-15T03:31:43;56579.16;;;-144.48;100.00
68758;BME280;55747;51.998;4.466;2023-03-15T03:34:28;56601.91;;;-144.48;100.00
68758;BME280;55747;51.998;4.466;2023-03-15T03:37:19;56560.53;;;-144.48;100.00
68758;BME280;55747;51.998;4.466;2023-03-15T03:39:56;56562.63;;;-144.48;100.00
68758;BME280;55747;51.998;4.466;2023-03-15T03:42:27;56583.28;;;-144.48;100.00
68758;BME280;55747;51.998;4.466;2023-03-15T03:44:55;56585.34;;;-144.48;100.00
68758;BME280;55747;51.998;4.466;2023-03-15T03:47:21;56612.22;;;-144.48;100.00
68758;BME280;55747;51.998;4.466;2023-03-15T03:49:49;56560.53;;;-144.48;100.00
68758;BME280;55747;51.998;4.466;2023-03-15T03:52:54;56579.16;;;-144.48;100.00
68758;BME280;55747;51.998;4.466;2023-03-15T03:55:29;56603.97;;;-144.48;100.00
68758;BME280;55747;51.998;4.466;2023-03-15T03:58:10;56593.63;;;-144.48;100.00
68758;BME280;55747;51.998;4.466;2023-03-15T04:00:38;56585.34;;;-144.48;100.00
68758;BME280;55747;51.998;4.466;2023-03-15T04:03:10;56589.50;;;-144.48;100.00
68758;BME280;55747;51.998;4.466;2023-03-15T04:05:35;56587.41;;;-144.48;100.00
68758;BME280;55747;51.998;4.466;2023-03-15T04:08:01;56597.75;;;-144.48;100.00
68758;BME280;55747;51.998;4.466;2023-03-15T04:10:29;56595.69;;;-144.48;100.00
68758;BME280;55747;51.998;4.466;2023-03-15T04:13:02;56558.47;;;-144.48;100.00
68758;BME280;55747;51.998;4.466;2023-03-15T04:15:27;56560.53;;;-144.48;100.00
68758;BME280;55747;51.998;4.466;2023-03-15T04:17:56;56610.16;;;-144.48;100.00
68758;BME280;55747;51.998;4.466;2023-03-15T04:20:22;56579.16;;;-144.48;100.00
68758;BME280;55747;51.998;4.466;2023-03-15T04:22:50;56599.81;;;-144.48;100.00
68758;BME280;55747;51.998;4.466;2023-03-15T04:25:19;56591.56;;;-144.48;100.00
68758;BME280;55747;51.998;4.466;2023-03-15T04:27:48;56566.75;;;-144.48;100.00
68758;BME280;55747;51.998;4.466;2023-03-15T04:30:27;56548.13;;;-144.48;100.00
68758;BME280;55747;51.998;4.466;2023-03-15T04:32:56;56603.97;;;-144.48;100.00
68758;BME280;55747;51.998;4.466;2023-03-15T04:35:34;56597.75;;;-144.48;100.00
68758;BME280;55747;51.998;4.466;2023-03-15T04:37:59;56585.34;;;-144.48;100.00
68758;BME280;55747;51.998;4.466;2023-03-15T04:40:27;56572.94;;;-144.48;100.00
68758;BME280;55747;51.998;4.466;2023-03-15T04:42:53;56550.22;;;-144.48;100.00
68758;BME280;55747;51.998;4.466;2023-03-15T04:45:23;56581.22;;;-144.48;100.00
68758;BME280;55747;51.998;4.466;2023-03-15T04:47:49;56597.75;;;-144.48;100.00
68758;BME280;55747;51.998;4.466;2023-03-15T04:50:16;56620.50;;;-144.48;100.00
68758;BME280;55747;51.998;4.466;2023-03-15T04:52:41;56583.28;;;-144.48;100.00
68758;BME280;55747;51.998;4.466;2023-03-15T04:55:07;56591.56;;;-144.48;100.00
68758;BME280;55747;51.998;4.466;2023-03-15T04:57:36;56606.03;;;-144.48;100.00
68758;BME280;55747;51.998;4.466;2023-03-15T05:00:02;56622.56;;;-144.48;100.00
68758;BME280;55747;51.998;4.466;2023-03-15T05:02:31;56612.22;;;-144.48;100.00
68758;BME280;55747;51.998;4.466;2023-03-15T05:04:56;56612.22;;;-144.48;100.00
68758;BME280;55747;51.998;4.466;2023-03-15T05:07:22;56583.28;;;-144.48;100.00
68758;BME280;55747;51.998;4.466;2023-03-15T05:09:47;56597.75;;;-144.48;100.00
68758;BME280;55747;51.998;4.466;2023-03-15T05:12:13;56606.03;;;-144.48;100.00
68758;BME280;55747;51.998;4.466;2023-03-15T05:14:38;56632.91;;;-144.48;100.00
68758;BME280;55747;51.998;4.466;2023-03-15T05:17:03;56608.09;;;-144.48;100.00
68758;BME280;55747;51.998;4.466;2023-03-15T05:19:29;56597.75;;;-144.48;100.00
68758;BME280;55747;51.998;4.466;2023-03-15T05:22:01;56606.03;;;-144.48;100.00
68758;BME280;55747;51.998;4.466;2023-03-15T05:24:28;56616.38;;;-144.48;100.00
68758;BME280;55747;51.998;4.466;2023-03-15T05:26:55;56587.41;;;-144.48;100.00
68758;BME280;55747;51.998;4.466;2023-03-15T05:29:21;56606.03;;;-144.48;100.00
68758;BME280;55747;51.998;4.466;2023-03-15T05:31:47;56597.75;;;-144.48;100.00
68758;BME280;55747;51.998;4.466;2023-03-15T05:34:13;56577.09;;;-144.48;100.00
68758;BME280;55747;51.998;4.466;2023-03-15T05:36:38;56570.88;;;-144.48;100.00
68758;BME280;55747;51.998;4.466;2023-03-15T05:39:04;56591.56;;;-144.48;100.00
68758;BME280;55747;51.998;4.466;2023-03-15T05:41:29;56612.22;;;-144.48;100.00
68758;BME280;55747;51.998;4.466;2023-03-15T05:43:55;56599.81;;;-144.48;100.00
68758;BME280;55747;51.998;4.466;2023-03-15T05:46:20;56599.81;;;-144.48;100.00
68758;BME280;55747;51.998;4.466;2023-03-15T05:48:47;56544.00;;;-144.48;100.00
68758;BME280;55747;51.998;4.466;2023-03-15T05:51:12;56620.50;;;-144.48;100.00
68758;BME280;55747;51.998;4.466;2023-03-15T05:53:38;56597.75;;;-144.48;100.00
68758;BME280;55747;51.998;4.466;2023-03-15T05:56:03;56585.34;;;-144.48;100.00
68758;BME280;55747;51.998;4.466;2023-03-15T05:58:29;56608.09;;;-144.48;100.00
68758;BME280;55747;51.998;4.466;2023-03-15T06:00:54;56583.28;;;-144.48;100.00
68758;BME280;55747;51.998;4.466;2023-03-15T06:03:20;56606.03;;;-144.48;100.00
68758;BME280;55747;51.998;4.466;2023-03-15T06:05:45;56585.34;;;-144.48;100.00
68758;BME280;55747;51.998;4.466;2023-03-15T06:08:10;56572.94;;;-144.48;100.00
68758;BME280;55747;51.998;4.466;2023-03-15T06:10:38;56595.69;;;-144.48;100.00
68758;BME280;55747;51.998;4.466;2023-03-15T06:13:06;56620.50;;;-144.48;100.00
68758;BME280;55747;51.998;4.466;2023-03-15T06:15:32;56603.97;;;-144.48;100.00
68758;BME280;55747;51.998;4.466;2023-03-15T06:17:57;56568.81;;;-144.48;100.00
68758;BME280;55747;51.998;4.466;2023-03-15T06:20:25;56612.22;;;-144.48;100.00
68758;BME280;55747;51.998;4.466;2023-03-15T06:22:51;56595.69;;;-144.48;100.00
68758;BME280;55747;51.998;4.466;2023-03-15T06:25:21;56601.91;;;-144.48;100.00
68758;BME280;55747;51.998;4.466;2023-03-15T06:27:46;56572.94;;;-144.48;100.00
68758;BME280;55747;51.998;4.466;2023-03-15T06:30:12;56568.81;;;-144.48;100.00
68758;BME280;55747;51.998;4.466;2023-03-15T06:32:38;56618.44;;;-144.48;100.00
68758;BME280;55747;51.998;4.466;2023-03-15T06:35:03;56579.16;;;-144.48;100.00
68758;BME280;55747;51.998;4.466;2023-03-15T06:37:29;56591.56;;;-144.48;100.00
68758;BME280;55747;51.998;4.466;2023-03-15T06:39:55;56593.63;;;-144.48;100.00
68758;BME280;55747;51.998;4.466;2023-03-15T06:42:41;56579.16;;;-144.48;100.00
68758;BME280;55747;51.998;4.466;2023-03-15T06:45:12;56599.81;;;-144.48;100.00
68758;BME280;55747;51.998;4.466;2023-03-15T06:47:40;56593.63;;;-144.48;100.00
68758;BME280;55747;51.998;4.466;2023-03-15T06:50:09;56591.56;;;-144.48;100.00
68758;BME280;55747;51.998;4.466;2023-03-15T06:52:37;56616.38;;;-144.48;100.00
68758;BME280;55747;51.998;4.466;2023-03-15T06:55:06;56581.22;;;-144.48;98.04
68758;BME280;55747;51.998;4.466;2023-03-15T06:57:43;56589.50;;;-144.48;96.98
68758;BME280;55747;51.998;4.466;2023-03-15T07:00:29;56589.50;;;-144.48;97.70
68758;BME280;55747;51.998;4.466;2023-03-15T07:02:57;56618.44;;;-144.48;99.53
68758;BME280;55747;51.998;4.466;2023-03-15T07:05:28;56593.63;;;-144.48;100.00
68758;BME280;55747;51.998;4.466;2023-03-15T07:07:55;56630.84;;;-144.48;100.00
68758;BME280;55747;51.998;4.466;2023-03-15T07:10:43;56626.72;;;-144.48;100.00
68758;BME280;55747;51.998;4.466;2023-03-15T07:14:13;56583.28;;;-144.48;100.00
68758;BME280;55747;51.998;4.466;2023-03-15T07:17:16;56612.22;;;-144.48;100.00
68758;BME280;55747;51.998;4.466;2023-03-15T07:19:50;56614.31;;;-144.48;100.00
68758;BME280;55747;51.998;4.466;2023-03-15T07:22:34;56612.22;;;-144.48;100.00
68758;BME280;55747;51.998;4.466;2023-03-15T07:25:15;56589.50;;;-144.48;100.00
68758;BME280;55747;51.998;4.466;2023-03-15T07:28:04;56581.22;;;-144.48;100.00
68758;BME280;55747;51.998;4.466;2023-03-15T07:37:00;56585.34;;;-144.48;100.00
68758;BME280;55747;51.998;4.466;2023-03-15T07:39:56;56614.31;;;-144.48;100.00
68758;BME280;55747;51.998;4.466;2023-03-15T07:42:53;56603.97;;;-144.48;99.65
68758;BME280;55747;51.998;4.466;2023-03-15T07:49:16;56599.81;;;-144.48;81.34
68758;BME280;55747;51.998;4.466;2023-03-15T07:52:16;56591.56;;;-144.48;66.43
68758;BME280;55747;51.998;4.466;2023-03-15T07:55:02;56583.28;;;-144.48;67.90
68758;BME280;55747;51.998;4.466;2023-03-15T07:57:28;56593.63;;;-144.48;63.09
68758;BME280;55747;51.998;4.466;2023-03-15T07:59:54;56566.75;;;-144.48;63.57
68758;BME280;55747;51.998;4.466;2023-03-15T08:02:25;56562.63;;;-144.48;62.19
68758;BME280;55747;51.998;4.466;2023-03-15T08:04:51;56593.63;;;-144.48;60.42
68758;BME280;55747;51.998;4.466;2023-03-15T08:07:17;56587.41;;;-144.48;59.13
68758;BME280;55747;51.998;4.466;2023-03-15T08:09:43;56595.69;;;-144.48;59.39
68758;BME280;55747;51.998;4.466;2023-03-15T08:12:09;56595.69;;;-144.48;62.17
68758;BME280;55747;51.998;4.466;2023-03-15T08:14:40;56585.34;;;-144.48;61.65
68758;BME280;55747;51.998;4.466;2023-03-15T08:17:16;56581.22;;;-144.48;61.11
68758;BME280;55747;51.998;4.466;2023-03-15T08:19:45;56599.81;;;-144.48;61.28
68758;BME280;55747;51.998;4.466;2023-03-15T08:22:13;56593.63;;;-144.48;61.52
68758;BME280;55747;51.998;4.466;2023-03-15T08:24:48;56583.28;;;-144.48;63.74
68758;BME280;55747;51.998;4.466;2023-03-15T08:27:14;56587.41;;;-144.48;61.43
68758;BME280;55747;51.998;4.466;2023-03-15T08:29:40;56575.03;;;-144.48;59.50
68758;BME280;55747;51.998;4.466;2023-03-15T08:32:06;56546.06;;;-144.48;57.12
68758;BME280;55747;51.998;4.466;2023-03-15T08:34:33;56513.00;;;-144.48;54.51
68758;BME280;55747;51.998;4.466;2023-03-15T08:36:58;56556.41;;;-144.48;54.95
68758;BME280;55747;51.998;4.466;2023-03-15T08:39:24;56572.94;;;-144.48;54.00
68758;BME280;55747;51.998;4.466;2023-03-15T08:41:49;56558.47;;;-144.48;52.11
68758;BME280;55747;51.998;4.466;2023-03-15T08:44:15;56583.28;;;-144.48;53.27
68758;BME280;55747;51.998;4.466;2023-03-15T08:46:40;56577.09;;;-144.48;51.67
68758;BME280;55747;51.998;4.466;2023-03-15T08:49:06;56544.00;;;-144.48;52.57
68758;BME280;55747;51.998;4.466;2023-03-15T08:51:31;56599.81;;;-144.48;50.71
68758;BME280;55747;51.998;4.466;2023-03-15T08:53:57;56562.63;;;-144.48;50.60
68758;BME280;55747;51.998;4.466;2023-03-15T08:56:23;56591.56;;;-144.48;47.93
68758;BME280;55747;51.998;4.466;2023-03-15T08:58:48;56537.81;;;-144.48;49.68
68758;BME280;55747;51.998;4.466;2023-03-15T09:01:14;56548.13;;;-144.48;49.55
68758;BME280;55747;51.998;4.466;2023-03-15T09:03:40;56544.00;;;-144.48;48.69
68758;BME280;55747;51.998;4.466;2023-03-15T09:06:07;56554.34;;;-144.48;48.10
68758;BME280;55747;51.998;4.466;2023-03-15T09:08:32;56510.94;;;-144.48;47.66
68758;BME280;55747;51.998;4.466;2023-03-15T09:10:58;56560.53;;;-144.48;47.30
68758;BME280;55747;51.998;4.466;2023-03-15T09:13:26;56554.34;;;-144.48;46.29
68758;BME280;55747;51.998;4.466;2023-03-15T09:15:52;56558.47;;;-144.48;45.73
68758;BME280;55747;51.998;4.466;2023-03-15T09:18:21;56562.63;;;-144.48;47.05
68758;BME280;55747;51.998;4.466;2023-03-15T09:20:46;56566.75;;;-144.48;46.50
68758;BME280;55747;51.998;4.466;2023-03-15T09:23:12;56558.47;;;-144.48;48.41
68758;BME280;55747;51.998;4.466;2023-03-15T09:25:38;56566.75;;;-144.48;48.58
68758;BME280;55747;51.998;4.466;2023-03-15T09:28:06;56570.88;;;-144.48;44.53
68758;BME280;55747;51.998;4.466;2023-03-15T09:30:32;56556.41;;;-144.48;45.37
68758;BME280;55747;51.998;4.466;2023-03-15T09:32:57;56564.69;;;-144.48;44.64
68758;BME280;55747;51.998;4.466;2023-03-15T09:35:23;56554.34;;;-144.48;45.14
68758;BME280;55747;51.998;4.466;2023-03-15T09:37:49;56535.75;;;-144.48;44.58
68758;BME280;55747;51.998;4.466;2023-03-15T09:40:28;56579.16;;;-144.48;44.78
68758;BME280;55747;51.998;4.466;2023-03-15T09:45:49;56546.06;;;-144.48;42.79
68758;BME280;55747;51.998;4.466;2023-03-15T09:48:23;56544.00;;;-144.48;41.67
68758;BME280;55747;51.998;4.466;2023-03-15T09:51:13;56531.59;;;-144.48;39.94
68758;BME280;55747;51.998;4.466;2023-03-15T09:53:44;56585.34;;;-144.48;40.22
68758;BME280;55747;51.998;4.466;2023-03-15T09:56:23;56525.41;;;-144.48;39.10
68758;BME280;55747;51.998;4.466;2023-03-15T09:58:51;56560.53;;;-144.48;35.77
68758;BME280;55747;51.998;4.466;2023-03-15T10:01:29;56570.88;;;-144.48;35.02
68758;BME280;55747;51.998;4.466;2023-03-15T10:03:55;56535.75;;;-144.48;36.92
68758;BME280;55747;51.998;4.466;2023-03-15T10:06:28;56531.59;;;-144.48;37.61
68758;BME280;55747;51.998;4.466;2023-03-15T10:08:59;56517.13;;;-144.48;37.12
68758;BME280;55747;51.998;4.466;2023-03-15T10:11:39;56506.78;;;-144.48;35.97
68758;BME280;55747;51.998;4.466;2023-03-15T10:17:09;56519.19;;;-144.48;35.05
68758;BME280;55747;51.998;4.466;2023-03-15T10:19:50;56523.34;;;-144.48;35.16
68758;BME280;55747;51.998;4.466;2023-03-15T10:22:30;56527.47;;;-144.48;34.96
68758;BME280;55747;51.998;4.466;2023-03-15T10:30:15;56517.13;;;-144.48;38.46
68758;BME280;55747;51.998;4.466;2023-03-15T10:32:42;56508.84;;;-144.48;41.87
68758;BME280;55747;51.998;4.466;2023-03-15T10:35:16;56525.41;;;-144.48;41.90
68758;BME280;55747;51.998;4.466;2023-03-15T10:37:43;56566.75;;;-144.48;39.50
68758;BME280;55747;51.998;4.466;2023-03-15T10:40:09;56533.66;;;-144.48;38.96
68758;BME280;55747;51.998;4.466;2023-03-15T10:42:44;56537.81;;;-144.48;37.44
68758;BME280;55747;51.998;4.466;2023-03-15T10:45:24;56535.75;;;-144.48;36.30
68758;BME280;55747;51.998;4.466;2023-03-15T10:47:50;56527.47;;;-144.48;38.87
68758;BME280;55747;51.998;4.466;2023-03-15T10:50:24;56504.72;;;-144.48;38.25
68758;BME280;55747;51.998;4.466;2023-03-15T10:52:54;56494.38;;;-144.48;38.97
68758;BME280;55747;51.998;4.466;2023-03-15T10:55:28;56494.38;;;-144.48;38.87
68758;BME280;55747;51.998;4.466;2023-03-15T10:57:58;56500.59;;;-144.48;38.50
68758;BME280;55747;51.998;4.466;2023-03-15T11:00:33;56521.25;;;-144.48;37.02
68758;BME280;55747;51.998;4.466;2023-03-15T11:03:21;56506.78;;;-144.48;37.44
68758;BME280;55747;51.998;4.466;2023-03-15T11:05:49;56500.59;;;-144.48;36.90
68758;BME280;55747;51.998;4.466;2023-03-15T11:11:08;56527.47;;;-144.48;35.72
68758;BME280;55747;51.998;4.466;2023-03-15T11:13:38;56496.44;;;-144.48;36.29
68758;BME280;55747;51.998;4.466;2023-03-15T11:16:19;56490.25;;;-144.48;36.47
68758;BME280;55747;51.998;4.466;2023-03-15T11:18:48;56527.47;;;-144.48;36.05
68758;BME280;55747;51.998;4.466;2023-03-15T11:21:22;56500.59;;;-144.48;36.41
68758;BME280;55747;51.998;4.466;2023-03-15T11:23:50;56517.13;;;-144.48;37.08
68758;BME280;55747;51.998;4.466;2023-03-15T11:26:25;56523.34;;;-144.48;36.56
68758;BME280;55747;51.998;4.466;2023-03-15T11:28:53;56517.13;;;-144.48;36.73
68758;BME280;55747;51.998;4.466;2023-03-15T11:31:21;56531.59;;;-144.48;37.29
68758;BME280;55747;51.998;4.466;2023-03-15T11:34:02;56539.88;;;-144.48;39.07
68758;BME280;55747;51.998;4.466;2023-03-15T11:36:32;56492.31;;;-144.48;35.99
68758;BME280;55747;51.998;4.466;2023-03-15T11:39:02;56492.31;;;-144.48;35.46
68758;BME280;55747;51.998;4.466;2023-03-15T11:44:07;56537.81;;;-144.48;35.65
68758;BME280;55747;51.998;4.466;2023-03-15T11:47:09;56539.88;;;-144.48;37.76
68758;BME280;55747;51.998;4.466;2023-03-15T11:49:41;56517.13;;;-144.48;37.39
68758;BME280;55747;51.998;4.466;2023-03-15T11:52:09;56492.31;;;-144.48;34.62
68758;BME280;55747;51.998;4.466;2023-03-15T11:54:35;56498.53;;;-144.48;35.63
68758;BME280;55747;51.998;4.466;2023-03-15T12:00:25;56510.94;;;-144.48;35.99
68758;BME280;55747;51.998;4.466;2023-03-15T12:03:31;56517.13;;;-144.48;34.23
68758;BME280;55747;51.998;4.466;2023-03-15T12:08:45;56523.34;;;-144.48;36.70
68758;BME280;55747;51.998;4.466;2023-03-15T12:16:22;56537.81;;;-144.48;38.60
68758;BME280;55747;51.998;4.466;2023-03-15T12:18:48;56519.19;;;-144.48;38.58
68758;BME280;55747;51.998;4.466;2023-03-15T12:21:16;56513.00;;;-144.48;36.15
68758;BME280;55747;51.998;4.466;2023-03-15T12:23:47;56494.38;;;-144.48;36.36
68758;BME280;55747;51.998;4.466;2023-03-15T12:26:25;56496.44;;;-144.48;40.02
68758;BME280;55747;51.998;4.466;2023-03-15T12:29:01;56502.66;;;-144.48;38.59
68758;BME280;55747;51.998;4.466;2023-03-15T12:31:49;56529.53;;;-144.48;40.50
68758;BME280;55747;51.998;4.466;2023-03-15T12:37:42;56463.38;;;-144.48;38.40
68758;BME280;55747;51.998;4.466;2023-03-15T12:55:47;56513.00;;;-144.48;37.79
68758;BME280;55747;51.998;4.466;2023-03-15T12:58:15;56521.25;;;-144.48;36.42
68758;BME280;55747;51.998;4.466;2023-03-15T13:00:41;56490.25;;;-144.48;36.38
68758;BME280;55747;51.998;4.466;2023-03-15T13:03:11;56500.59;;;-144.48;36.66
68758;BME280;55747;51.998;4.466;2023-03-15T13:06:04;56502.66;;;-144.48;37.32
68758;BME280;55747;51.998;4.466;2023-03-15T13:11:32;56492.31;;;-144.48;34.80
68758;BME280;55747;51.998;4.466;2023-03-15T13:19:30;56484.06;;;-144.48;33.84
68758;BME280;55747;51.998;4.466;2023-03-15T13:22:26;56513.00;;;-144.48;35.81
68758;BME280;55747;51.998;4.466;2023-03-15T13:25:06;56506.78;;;-144.48;34.63
68758;BME280;55747;51.998;4.466;2023-03-15T13:27:47;56513.00;;;-144.48;33.91
68758;BME280;55747;51.998;4.466;2023-03-15T13:30:31;56486.13;;;-144.48;36.81
68758;BME280;55747;51.998;4.466;2023-03-15T13:33:25;56515.06;;;-144.48;34.61
68758;BME280;55747;51.998;4.466;2023-03-15T13:38:41;56498.53;;;-144.48;37.38
68758;BME280;55747;51.998;4.466;2023-03-15T13:43:42;56500.59;;;-144.48;37.74
68758;BME280;55747;51.998;4.466;2023-03-15T13:46:08;56515.06;;;-144.48;38.83
68758;BME280;55747;51.998;4.466;2023-03-15T13:48:35;56475.78;;;-144.48;37.90
68758;BME280;55747;51.998;4.466;2023-03-15T13:51:19;56463.38;;;-144.48;36.00
68758;BME280;55747;51.998;4.466;2023-03-15T13:53:48;56490.25;;;-144.48;35.33
68758;BME280;55747;51.998;4.466;2023-03-15T13:56:17;56488.19;;;-144.48;35.73
68758;BME280;55747;51.998;4.466;2023-03-15T13:58:44;56481.97;;;-144.48;37.81
68758;BME280;55747;51.998;4.466;2023-03-15T14:01:11;56475.78;;;-144.48;37.89
68758;BME280;55747;51.998;4.466;2023-03-15T14:03:55;56432.38;;;-144.48;39.51
68758;BME280;55747;51.998;4.466;2023-03-15T14:06:24;56469.56;;;-144.48;39.60
68758;BME280;55747;51.998;4.466;2023-03-15T14:09:06;56488.19;;;-144.48;40.05
68758;BME280;55747;51.998;4.466;2023-03-15T14:11:43;56496.44;;;-144.48;41.61
68758;BME280;55747;51.998;4.466;2023-03-15T14:14:26;56498.53;;;-144.48;42.25
68758;BME280;55747;51.998;4.466;2023-03-15T14:16:52;56479.91;;;-144.48;41.38
68758;BME280;55747;51.998;4.466;2023-03-15T14:19:22;56479.91;;;-144.48;43.59